createdAt,value
2017-12-04T00:01:59.638Z,53.93
2017-12-04T00:04:31.122Z,50.80
2017-12-04T00:07:06.128Z,49.97
2017-12-04T00:09:39.281Z,54.87
2017-12-04T00:12:10.681Z,58.30
2017-12-04T00:14:44.791Z,55.03
2017-12-04T00:17:17.312Z,67.20
2017-12-04T00:19:50.980Z,55.60
2017-12-04T00:22:23.552Z,51.97
2017-12-04T00:24:58.368Z,58.23
2017-12-04T00:27:30.069Z,54.17
2017-12-04T00:30:04.050Z,53.67
2017-12-04T00:32:37.697Z,54.70
2017-12-04T00:35:12.002Z,51.20
2017-12-04T00:37:44.247Z,56.90
2017-12-04T00:40:19.027Z,51.93
2017-12-04T00:42:52.981Z,54.20
2017-12-04T00:45:24.629Z,53.20
2017-12-04T00:47:57.878Z,58.17
2017-12-04T00:50:30.865Z,57.60
2017-12-04T00:53:08.609Z,57.87
2017-12-04T00:55:41.753Z,55.37
2017-12-04T00:58:39.011Z,61.03
2017-12-04T01:02:25.483Z,54.57
2017-12-04T01:08:07.379Z,51.93
2017-12-04T01:10:39.104Z,54.67
2017-12-04T01:13:10.404Z,53.87
2017-12-04T01:15:42.029Z,54.70
2017-12-04T01:18:13.760Z,50.37
2017-12-04T01:20:45.343Z,59.77
2017-12-04T01:23:16.661Z,49.70
2017-12-04T01:25:49.583Z,55.23
2017-12-04T01:28:21.199Z,53.23
2017-12-04T01:30:52.700Z,57.60
2017-12-04T01:33:24.444Z,50.60
2017-12-04T01:35:56.974Z,50.73
2017-12-04T01:38:28.392Z,49.07
2017-12-04T01:41:02.290Z,46.77
2017-12-04T01:43:35.465Z,50.27
2017-12-04T01:46:12.251Z,53.37
2017-12-04T01:48:43.775Z,46.73
2017-12-04T01:51:15.983Z,49.00
2017-12-04T01:53:49.413Z,47.23
2017-12-04T01:56:22.384Z,48.17
2017-12-04T01:58:54.745Z,43.80
2017-12-04T02:01:26.155Z,45.20
2017-12-04T02:03:58.021Z,55.73
2017-12-04T02:06:30.004Z,47.57
2017-12-04T02:09:02.870Z,49.60
2017-12-04T02:11:34.273Z,40.90
2017-12-04T02:14:06.156Z,48.60
2017-12-04T02:16:37.462Z,46.30
2017-12-04T02:19:11.309Z,51.53
2017-12-04T02:21:43.000Z,48.70
2017-12-04T02:24:14.342Z,48.17
2017-12-04T02:26:45.945Z,50.07
2017-12-04T02:29:17.776Z,45.97
2017-12-04T02:31:49.627Z,48.40
2017-12-04T02:34:21.060Z,49.20
2017-12-04T02:36:52.718Z,51.33
2017-12-04T02:39:27.066Z,51.87
2017-12-04T02:42:04.075Z,48.30
2017-12-04T02:44:36.210Z,49.77
2017-12-04T02:47:09.515Z,52.20
2017-12-04T02:49:41.426Z,50.27
2017-12-04T02:52:13.351Z,52.73
2017-12-04T02:54:45.018Z,47.10
2017-12-04T02:57:16.728Z,55.73
2017-12-04T02:59:48.067Z,42.83
2017-12-04T03:02:23.030Z,43.60
2017-12-04T03:04:59.048Z,44.57
2017-12-04T03:07:30.417Z,49.30
2017-12-04T03:10:03.739Z,46.90
2017-12-04T03:12:35.036Z,45.30
2017-12-04T03:15:06.574Z,42.53
2017-12-04T03:17:39.292Z,44.30
2017-12-04T03:20:10.737Z,44.73
2017-12-04T03:22:42.110Z,46.97
2017-12-04T03:25:13.425Z,49.90
2017-12-04T03:27:45.115Z,49.37
2017-12-04T03:30:16.504Z,49.23
2017-12-04T03:32:47.843Z,54.70
2017-12-04T03:35:20.306Z,55.13
2017-12-04T03:37:53.906Z,54.20
2017-12-04T03:40:27.008Z,49.13
2017-12-04T03:42:58.710Z,56.07
2017-12-04T03:45:31.959Z,51.90
2017-12-04T03:48:04.607Z,50.47
2017-12-04T03:50:36.367Z,54.17
2017-12-04T03:53:07.682Z,51.37
2017-12-04T03:55:39.007Z,56.43
2017-12-04T03:58:14.809Z,45.80
2017-12-04T04:00:47.828Z,51.70
2017-12-04T04:03:20.227Z,42.57
2017-12-04T04:05:53.059Z,50.87
2017-12-04T04:08:24.387Z,50.73
2017-12-04T04:10:58.469Z,52.73
2017-12-04T04:13:29.784Z,48.40
2017-12-04T04:16:05.111Z,46.93
2017-12-04T04:18:36.961Z,46.57
2017-12-04T04:21:08.638Z,53.30
2017-12-04T04:23:40.879Z,46.67
2017-12-04T04:26:13.501Z,47.00
2017-12-04T04:28:46.464Z,43.50
2017-12-04T04:31:19.636Z,41.33
2017-12-04T04:33:51.585Z,41.73
2017-12-04T04:36:23.275Z,46.77
2017-12-04T04:38:55.874Z,42.77
2017-12-04T04:41:27.252Z,46.63
2017-12-04T04:44:01.513Z,41.10
2017-12-04T04:46:33.464Z,35.93
2017-12-04T04:49:06.392Z,46.30
2017-12-04T04:51:37.846Z,46.50
2017-12-04T04:54:09.518Z,42.40
2017-12-04T04:56:41.112Z,37.40
2017-12-04T04:59:12.552Z,42.50
2017-12-04T05:01:44.191Z,44.70
2017-12-04T05:04:16.911Z,47.77
2017-12-04T05:06:48.352Z,37.13
2017-12-04T05:09:22.166Z,44.63
2017-12-04T05:11:54.589Z,40.43
2017-12-04T05:14:27.447Z,39.93
2017-12-04T05:17:03.193Z,37.53
2017-12-04T05:19:35.392Z,45.50
2017-12-04T05:22:08.559Z,38.30
2017-12-04T05:24:41.104Z,37.00
2017-12-04T05:27:13.054Z,45.80
2017-12-04T05:29:44.674Z,40.97
2017-12-04T05:32:16.130Z,37.47
2017-12-04T05:34:47.660Z,39.77
2017-12-04T05:37:19.515Z,36.80
2017-12-04T05:39:50.987Z,41.63
2017-12-04T05:42:22.396Z,44.10
2017-12-04T05:44:54.149Z,44.90
2017-12-04T05:47:25.711Z,38.20
2017-12-04T05:50:06.438Z,35.77
2017-12-04T05:52:38.135Z,39.83
2017-12-04T05:55:09.436Z,37.17
2017-12-04T05:57:41.036Z,36.13
2017-12-04T06:00:12.392Z,40.20
2017-12-04T06:02:43.723Z,37.03
2017-12-04T06:05:16.209Z,38.07
2017-12-04T06:07:49.218Z,38.13
2017-12-04T06:10:22.046Z,38.97
2017-12-04T06:12:54.330Z,36.27
2017-12-04T06:15:26.946Z,38.27
2017-12-04T06:18:00.236Z,35.40
2017-12-04T06:20:36.495Z,32.73
2017-12-04T06:23:09.448Z,35.83
2017-12-04T06:25:41.224Z,37.40
2017-12-04T06:28:12.751Z,29.63
2017-12-04T06:30:44.340Z,32.20
2017-12-04T06:33:15.756Z,37.20
2017-12-04T06:35:47.079Z,35.67
2017-12-04T06:38:20.074Z,31.90
2017-12-04T06:40:51.433Z,35.93
2017-12-04T06:43:22.761Z,37.27
2017-12-04T06:45:54.371Z,37.23
2017-12-04T06:48:25.810Z,36.00
2017-12-04T06:50:58.077Z,36.43
2017-12-04T06:53:29.401Z,34.27
2017-12-04T06:56:02.804Z,31.93
2017-12-04T06:58:38.089Z,32.20
2017-12-04T07:01:13.932Z,30.20
2017-12-04T07:03:45.723Z,32.60
2017-12-04T07:06:17.087Z,35.40
2017-12-04T07:08:48.826Z,33.20
2017-12-04T07:11:20.126Z,37.10
2017-12-04T07:13:51.510Z,33.03
2017-12-04T07:16:23.094Z,34.67
2017-12-04T07:18:54.695Z,29.00
2017-12-04T07:21:26.227Z,34.67
2017-12-04T07:23:58.352Z,41.23
2017-12-04T07:26:32.280Z,35.23
2017-12-04T07:29:07.361Z,29.33
2017-12-04T07:31:38.677Z,29.67
2017-12-04T07:34:09.996Z,32.87
2017-12-04T07:36:41.623Z,32.50
2017-12-04T07:39:22.370Z,28.00
2017-12-04T07:41:54.910Z,32.70
2017-12-04T07:44:29.380Z,29.90
2017-12-04T07:47:09.134Z,32.03
2017-12-04T07:49:40.463Z,28.87
2017-12-04T07:52:12.495Z,35.60
2017-12-04T07:54:44.333Z,28.10
2017-12-04T07:57:15.707Z,30.13
2017-12-04T07:59:47.316Z,35.23
2017-12-04T08:02:18.949Z,29.73
2017-12-04T08:04:56.581Z,28.90
2017-12-04T08:07:30.871Z,29.77
2017-12-04T08:10:12.083Z,33.33
2017-12-04T08:12:46.227Z,27.60
2017-12-04T08:15:17.796Z,31.83
2017-12-04T08:17:49.157Z,33.93
2017-12-04T08:20:21.047Z,31.80
2017-12-04T08:22:52.520Z,37.50
2017-12-04T08:25:24.439Z,33.20
2017-12-04T08:27:56.516Z,33.23
2017-12-04T08:30:28.617Z,34.43
2017-12-04T08:33:01.108Z,32.03
2017-12-04T08:35:32.606Z,34.43
2017-12-04T08:38:11.216Z,36.23
2017-12-04T08:40:42.925Z,34.30
2017-12-04T08:43:15.324Z,32.53
2017-12-04T08:51:37.370Z,36.77
2017-12-04T08:54:09.437Z,32.17
2017-12-04T08:56:42.233Z,36.73
2017-12-04T08:59:13.784Z,31.47
2017-12-04T09:04:27.436Z,34.30
2017-12-04T09:06:58.823Z,40.83
2017-12-04T09:09:31.263Z,30.87
2017-12-04T09:12:05.061Z,36.57
2017-12-04T09:14:36.746Z,37.43
2017-12-04T09:17:08.888Z,35.90
2017-12-04T09:19:40.261Z,32.47
2017-12-04T09:22:12.756Z,43.43
2017-12-04T09:24:44.511Z,39.47
2017-12-04T09:27:16.091Z,35.43
2017-12-04T09:29:47.583Z,33.50
2017-12-04T09:32:20.872Z,36.47
2017-12-04T09:34:52.332Z,33.77
2017-12-04T09:37:25.555Z,39.77
2017-12-04T09:39:57.492Z,34.93
2017-12-04T09:42:31.923Z,35.10
2017-12-04T09:45:04.257Z,40.00
2017-12-04T09:47:36.603Z,32.60
2017-12-04T09:50:08.363Z,28.40
2017-12-04T09:52:39.965Z,40.53
2017-12-04T09:55:11.718Z,38.47
2017-12-04T09:57:43.728Z,34.37
2017-12-04T10:00:16.815Z,35.03
2017-12-04T10:02:48.304Z,41.23
2017-12-04T10:05:22.120Z,32.80
2017-12-04T10:07:53.580Z,38.20
2017-12-04T10:10:25.718Z,39.70
2017-12-04T10:12:57.205Z,37.07
2017-12-04T10:15:28.660Z,36.43
2017-12-04T10:18:00.731Z,37.60
2017-12-04T10:20:32.579Z,31.60
2017-12-04T10:23:04.529Z,37.23
2017-12-04T10:25:37.105Z,33.13
2017-12-04T10:28:10.868Z,34.93
2017-12-04T10:30:42.266Z,36.53
2017-12-04T10:33:13.647Z,38.67
2017-12-04T10:35:45.034Z,36.40
2017-12-04T10:38:16.825Z,41.70
2017-12-04T10:40:54.502Z,39.47
2017-12-04T10:43:27.910Z,37.67
2017-12-04T10:45:59.680Z,38.57
2017-12-04T10:48:31.119Z,33.67
2017-12-04T10:51:02.922Z,35.17
2017-12-04T10:53:34.424Z,31.73
2017-12-04T10:56:07.936Z,31.97
2017-12-04T10:58:39.812Z,27.03
2017-12-04T11:01:11.474Z,32.63
2017-12-04T11:03:49.808Z,28.20
2017-12-04T11:06:23.947Z,42.57
2017-12-04T11:08:55.562Z,33.77
2017-12-04T11:11:27.362Z,34.07
2017-12-04T11:13:58.898Z,26.90
2017-12-04T11:16:36.046Z,28.30
2017-12-04T11:19:07.822Z,35.73
2017-12-04T11:21:39.247Z,25.10
2017-12-04T11:24:12.490Z,31.23
2017-12-04T11:26:44.066Z,25.60
2017-12-04T11:29:15.475Z,26.80
2017-12-04T11:31:47.481Z,26.20
2017-12-04T11:34:19.770Z,30.20
2017-12-04T11:36:51.622Z,26.07
2017-12-04T11:39:23.353Z,26.70
2017-12-04T11:41:55.155Z,37.13
2017-12-04T11:44:29.089Z,28.33
2017-12-04T11:47:01.974Z,26.63
2017-12-04T11:49:33.419Z,21.37
2017-12-04T11:52:06.626Z,25.03
2017-12-04T11:54:38.867Z,28.50
2017-12-04T11:57:10.284Z,25.23
2017-12-04T11:59:41.985Z,26.70
2017-12-04T12:02:14.431Z,25.83
2017-12-04T12:04:46.138Z,23.93
2017-12-04T12:07:17.614Z,24.33
2017-12-04T12:09:49.128Z,24.00
2017-12-04T12:12:22.173Z,26.50
2017-12-04T12:14:53.774Z,26.70
2017-12-04T12:17:25.333Z,26.40
2017-12-04T12:19:57.505Z,27.57
2017-12-04T12:22:30.602Z,27.37
2017-12-04T12:25:02.629Z,26.90
2017-12-04T12:27:34.507Z,25.83
2017-12-04T12:30:07.924Z,24.87
2017-12-04T12:32:39.361Z,21.87
2017-12-04T12:35:11.204Z,25.47
2017-12-04T12:41:43.917Z,26.80
2017-12-04T12:44:16.003Z,32.60
2017-12-04T12:46:49.481Z,24.57
2017-12-04T12:49:21.374Z,32.77
2017-12-04T12:51:53.799Z,26.67
2017-12-04T12:54:25.452Z,30.50
2017-12-04T12:56:57.217Z,28.13
2017-12-04T12:59:30.499Z,27.80
2017-12-04T13:04:39.159Z,27.57
2017-12-04T13:07:10.700Z,31.17
2017-12-04T13:12:20.295Z,29.10
2017-12-04T13:14:52.404Z,30.90
2017-12-04T13:17:29.831Z,26.87
2017-12-04T13:20:09.258Z,28.97
2017-12-04T13:22:41.198Z,25.87
2017-12-04T13:25:12.514Z,30.53
2017-12-04T13:27:44.133Z,28.17
2017-12-04T13:30:15.682Z,38.90
2017-12-04T13:39:12.282Z,29.13
2017-12-04T13:41:43.958Z,32.83
2017-12-04T13:44:15.625Z,26.03
2017-12-04T13:46:47.383Z,31.10
2017-12-04T13:49:18.785Z,27.00
2017-12-04T13:51:50.390Z,32.87
2017-12-04T13:54:22.922Z,29.80
2017-12-04T13:56:54.536Z,27.30
2017-12-04T13:59:26.200Z,33.03
2017-12-04T14:01:57.557Z,27.53
2017-12-04T14:04:29.068Z,26.70
2017-12-04T14:07:00.683Z,25.50
2017-12-04T14:09:36.589Z,24.13
2017-12-04T14:12:09.147Z,22.23
2017-12-04T14:14:41.623Z,22.33
2017-12-04T14:17:13.429Z,26.13
2017-12-04T14:19:49.784Z,22.13
2017-12-04T14:22:21.140Z,24.33
2017-12-04T14:24:52.754Z,19.70
2017-12-04T14:27:24.456Z,28.27
2017-12-04T14:29:55.799Z,18.27
2017-12-04T14:32:30.143Z,22.03
2017-12-04T14:35:01.675Z,18.43
2017-12-04T14:37:33.299Z,29.00
2017-12-04T14:42:59.971Z,28.73
2017-12-04T14:45:31.306Z,19.47
2017-12-04T14:48:04.925Z,22.10
2017-12-04T14:50:36.683Z,21.70
2017-12-04T14:53:08.107Z,20.03
2017-12-04T14:55:39.508Z,20.17
2017-12-04T14:58:11.474Z,20.67
2017-12-04T15:00:42.852Z,18.93
2017-12-04T15:03:14.460Z,19.10
2017-12-04T15:05:45.915Z,21.40
2017-12-04T15:08:17.394Z,24.60
2017-12-04T15:10:48.813Z,18.43
2017-12-04T15:13:20.308Z,24.40
2017-12-04T15:15:52.058Z,27.50
2017-12-04T15:18:24.472Z,20.50
2017-12-04T15:20:56.266Z,20.70
2017-12-04T15:23:27.909Z,23.30
2017-12-04T15:25:59.400Z,20.80
2017-12-04T15:28:31.394Z,18.20
2017-12-04T15:31:03.369Z,21.47
2017-12-04T15:33:35.145Z,16.57
2017-12-04T15:36:07.416Z,21.90
2017-12-04T15:38:38.777Z,15.83
2017-12-04T15:41:10.111Z,22.00
2017-12-04T15:43:41.521Z,20.93
2017-12-04T15:46:14.574Z,18.20
2017-12-04T15:48:45.982Z,20.77
2017-12-04T15:51:17.791Z,26.40
2017-12-04T15:53:49.187Z,21.70
2017-12-04T15:56:20.669Z,19.63
2017-12-04T15:58:52.326Z,20.10
2017-12-04T16:01:24.106Z,19.80
2017-12-04T16:03:55.478Z,18.93
2017-12-04T16:06:27.259Z,21.50
2017-12-04T16:08:58.611Z,27.63
2017-12-04T16:11:32.188Z,25.63
2017-12-04T16:14:05.315Z,22.30
2017-12-04T16:16:37.016Z,26.60
2017-12-04T16:19:08.448Z,19.23
2017-12-04T16:21:40.135Z,25.00
2017-12-04T16:24:12.526Z,26.27
2017-12-04T16:26:43.874Z,27.90
2017-12-04T16:29:15.535Z,28.60
2017-12-04T16:31:47.005Z,21.80
2017-12-04T16:34:18.585Z,21.90
2017-12-04T16:36:50.229Z,21.80
2017-12-04T16:39:21.569Z,24.03
2017-12-04T16:41:53.270Z,25.37
2017-12-04T16:44:24.903Z,25.23
2017-12-04T16:46:56.249Z,24.13
2017-12-04T16:49:27.981Z,34.57
2017-12-04T16:51:59.491Z,22.00
2017-12-04T16:54:31.393Z,26.40
2017-12-04T16:57:03.475Z,24.80
2017-12-04T16:59:34.926Z,23.73
2017-12-04T17:02:07.367Z,22.60
2017-12-04T17:07:34.649Z,22.50
2017-12-04T17:10:10.836Z,21.33
2017-12-04T17:12:42.445Z,28.10
2017-12-04T17:15:13.802Z,23.50
2017-12-04T17:17:45.529Z,21.03
2017-12-04T17:20:17.208Z,29.77
2017-12-04T17:22:48.584Z,24.77
2017-12-04T17:25:20.143Z,29.10
2017-12-04T17:27:52.092Z,26.10
2017-12-04T17:30:23.716Z,21.73
2017-12-04T17:32:55.485Z,21.70
2017-12-04T17:38:08.738Z,16.27
2017-12-04T17:40:40.130Z,20.37
2017-12-04T17:43:11.547Z,20.13
2017-12-04T17:45:43.103Z,30.97
2017-12-04T17:48:15.326Z,23.20
2017-12-04T17:50:47.132Z,23.70
2017-12-04T17:53:18.551Z,29.23
2017-12-04T17:55:50.182Z,37.47
2017-12-04T17:58:22.207Z,25.90
2017-12-04T18:00:53.717Z,21.87
2017-12-04T18:03:25.465Z,31.83
2017-12-04T18:05:56.933Z,20.53
2017-12-04T18:08:29.746Z,22.30
2017-12-04T18:11:15.777Z,25.70
2017-12-04T18:13:47.193Z,24.53
2017-12-04T18:16:18.877Z,25.00
2017-12-04T18:18:50.289Z,31.47
2017-12-04T18:21:22.316Z,28.13
2017-12-04T18:23:54.900Z,26.87
2017-12-04T18:26:26.566Z,26.37
2017-12-04T18:28:58.306Z,32.40
2017-12-04T18:31:31.996Z,32.07
2017-12-04T18:34:06.851Z,27.60
2017-12-04T18:36:38.272Z,28.20
2017-12-04T18:39:09.712Z,29.23
2017-12-04T18:41:41.673Z,32.40
2017-12-04T18:44:16.010Z,34.47
2017-12-04T18:46:53.924Z,33.47
2017-12-04T18:49:25.810Z,30.53
2017-12-04T18:51:57.230Z,29.47
2017-12-04T18:54:32.050Z,30.10
2017-12-04T18:57:03.804Z,32.67
2017-12-04T18:59:38.090Z,36.93
2017-12-04T19:02:10.978Z,40.67
2017-12-04T19:04:43.230Z,37.87
2017-12-04T19:07:14.672Z,37.60
2017-12-04T19:09:47.788Z,27.83
2017-12-04T19:12:20.879Z,29.53
2017-12-04T19:14:52.259Z,30.67
2017-12-04T19:17:24.230Z,34.53
2017-12-04T19:19:55.939Z,32.63
2017-12-04T19:22:27.365Z,25.67
2017-12-04T19:24:59.050Z,31.47
2017-12-04T19:27:32.168Z,30.53
2017-12-04T19:30:10.775Z,29.87
2017-12-04T19:35:38.364Z,33.60
2017-12-04T19:38:09.953Z,28.40
2017-12-04T19:40:41.428Z,25.63
2017-12-04T19:43:13.423Z,31.43
2017-12-04T19:45:46.033Z,29.30
2017-12-04T19:48:18.206Z,28.27
2017-12-04T19:50:50.053Z,28.00
2017-12-04T19:53:21.520Z,24.70
2017-12-04T19:55:53.264Z,34.47
2017-12-04T19:58:25.341Z,29.20
2017-12-04T20:00:56.773Z,27.93
2017-12-04T20:03:29.111Z,37.30
2017-12-04T20:06:01.034Z,37.37
2017-12-04T20:08:33.278Z,31.67
2017-12-04T20:11:05.225Z,32.53
2017-12-04T20:13:37.747Z,32.83
2017-12-04T20:16:09.877Z,34.37
2017-12-04T20:18:41.543Z,37.00
2017-12-04T20:21:12.942Z,36.37
2017-12-04T20:23:44.688Z,37.40
2017-12-04T20:26:17.987Z,32.10
2017-12-04T20:28:49.508Z,30.63
2017-12-04T20:31:21.211Z,29.00
2017-12-04T20:33:52.672Z,31.27
2017-12-04T20:36:24.576Z,35.90
2017-12-04T20:38:59.856Z,27.57
2017-12-04T20:41:32.473Z,27.70
2017-12-04T20:44:08.959Z,32.77
2017-12-04T20:46:40.628Z,30.70
2017-12-04T20:49:12.347Z,28.23
2017-12-04T20:51:43.851Z,39.07
2017-12-04T20:54:15.867Z,27.80
2017-12-04T20:56:47.370Z,33.40
2017-12-04T20:59:19.108Z,29.00
2017-12-04T21:01:50.860Z,33.27
2017-12-04T21:04:22.448Z,29.40
2017-12-04T21:06:54.743Z,32.27
2017-12-04T21:11:39.195Z,27.43
2017-12-04T21:14:21.374Z,38.03
2017-12-04T21:17:36.234Z,28.60
2017-12-04T21:20:08.319Z,31.80
2017-12-04T21:22:40.462Z,36.73
2017-12-04T21:25:12.542Z,35.43
2017-12-04T21:27:45.415Z,32.23
2017-12-04T21:30:17.367Z,29.30
2017-12-04T21:32:49.961Z,33.20
2017-12-04T21:35:21.768Z,32.23
2017-12-04T21:37:53.618Z,37.57
2017-12-04T21:40:26.312Z,34.73
2017-12-04T21:42:58.047Z,33.73
2017-12-04T21:45:29.763Z,29.77
2017-12-04T21:48:01.798Z,34.63
2017-12-04T21:50:36.546Z,35.00
2017-12-04T21:53:08.248Z,40.37
2017-12-04T21:55:41.144Z,42.10
2017-12-04T21:58:13.453Z,36.83
2017-12-04T22:00:44.894Z,35.10
2017-12-04T22:03:16.314Z,35.97
2017-12-04T22:05:49.680Z,44.77
2017-12-04T22:08:21.219Z,33.07
2017-12-04T22:10:52.939Z,34.77
2017-12-04T22:13:24.585Z,39.63
2017-12-04T22:15:57.077Z,33.80
2017-12-04T22:18:28.562Z,38.97
2017-12-04T22:21:00.303Z,37.73
2017-12-04T22:23:32.002Z,43.20
2017-12-04T22:26:04.906Z,33.00
2017-12-04T22:28:36.377Z,35.33
2017-12-04T22:31:08.112Z,35.73
2017-12-04T22:33:40.199Z,35.23
2017-12-04T22:36:11.824Z,33.70
2017-12-04T22:38:43.653Z,37.10
2017-12-04T22:41:15.140Z,31.90
2017-12-04T22:43:47.062Z,39.17
2017-12-04T22:46:19.529Z,35.90
2017-12-04T22:48:51.806Z,45.53
2017-12-04T22:51:23.233Z,41.03
2017-12-04T22:53:54.988Z,41.40
2017-12-04T22:56:26.647Z,42.87
2017-12-04T22:58:59.151Z,37.93
2017-12-04T23:01:31.235Z,40.87
2017-12-04T23:04:04.973Z,40.27
2017-12-04T23:06:36.992Z,37.53
2017-12-04T23:09:09.116Z,38.60
2017-12-04T23:11:42.350Z,45.67
2017-12-04T23:14:15.502Z,39.23
2017-12-04T23:16:47.292Z,40.00
2017-12-04T23:19:18.715Z,39.20
2017-12-04T23:21:50.865Z,37.90
2017-12-04T23:24:23.383Z,38.30
2017-12-04T23:26:54.935Z,39.70
2017-12-04T23:29:27.398Z,34.33
2017-12-04T23:31:58.912Z,36.90
2017-12-04T23:34:30.342Z,33.57
2017-12-04T23:37:02.326Z,38.40
2017-12-04T23:39:33.906Z,32.03
2017-12-04T23:42:06.418Z,34.17
2017-12-04T23:44:37.768Z,35.40
2017-12-04T23:47:09.371Z,34.97
2017-12-04T23:49:40.731Z,30.70
2017-12-04T23:52:12.721Z,29.80
2017-12-04T23:54:44.571Z,29.63
2017-12-04T23:57:15.875Z,29.53
2017-12-04T23:59:47.179Z,35.20
